createdAt,value
2023-03-24T00:01:29.830Z,12.60
2023-03-24T00:03:59.240Z,12.57
2023-03-24T00:06:27.986Z,12.73
2023-03-24T00:08:56.612Z,12.55
2023-03-24T00:11:26.427Z,12.03
2023-03-24T00:13:58.535Z,12.48
2023-03-24T00:16:28.625Z,12.55
2023-03-24T00:18:57.922Z,12.64
2023-03-24T00:21:27.520Z,12.25
2023-03-24T00:23:58.406Z,12.40
2023-03-24T00:26:27.158Z,12.22
2023-03-24T00:28:57.203Z,12.44
2023-03-24T00:31:27.326Z,12.35
2023-03-24T00:33:55.936Z,12.78
2023-03-24T00:36:26.832Z,12.90
2023-03-24T00:38:55.942Z,12.46
2023-03-24T00:41:26.812Z,12.22
2023-03-24T00:43:58.441Z,12.38
2023-03-24T00:46:29.100Z,12.81
2023-03-24T00:49:02.633Z,12.78
2023-03-24T00:51:35.229Z,12.40
2023-03-24T00:54:03.958Z,12.16
2023-03-24T00:56:37.871Z,12.60
2023-03-24T00:59:10.471Z,12.19
2023-03-24T01:01:41.530Z,12.36
2023-03-24T01:04:11.242Z,12.41
2023-03-24T01:06:41.175Z,12.74
2023-03-24T01:09:10.703Z,12.72
2023-03-24T01:11:41.821Z,12.78
2023-03-24T01:14:11.152Z,12.70
2023-03-24T01:16:42.112Z,12.41
2023-03-24T01:19:11.094Z,12.73
2023-03-24T01:21:42.272Z,12.46
2023-03-24T01:24:13.636Z,12.36
2023-03-24T01:26:42.280Z,12.09
2023-03-24T01:29:10.954Z,12.54
2023-03-24T01:31:41.019Z,12.14
2023-03-24T01:34:09.759Z,12.25
2023-03-24T01:36:38.348Z,12.40
2023-03-24T01:39:06.960Z,12.51
2023-03-24T01:41:38.804Z,12.40
2023-03-24T01:44:31.139Z,12.14
2023-03-24T01:47:04.226Z,12.42
2023-03-24T01:49:37.596Z,12.65
2023-03-24T01:52:11.437Z,12.19
2023-03-24T01:54:45.348Z,12.54
2023-03-24T01:57:18.651Z,12.16
2023-03-24T01:59:52.994Z,12.38
2023-03-24T02:02:23.163Z,12.18
2023-03-24T02:04:56.064Z,12.23
2023-03-24T02:07:33.102Z,12.37
2023-03-24T02:10:02.863Z,12.35
2023-03-24T02:12:32.504Z,12.48
2023-03-24T02:15:02.018Z,12.29
2023-03-24T02:17:54.696Z,12.48
2023-03-24T02:20:55.793Z,12.54
2023-03-24T02:23:49.695Z,12.51
2023-03-24T02:26:49.476Z,12.46
2023-03-24T02:29:54.925Z,12.85
2023-03-24T02:32:52.731Z,12.91
2023-03-24T02:35:43.056Z,12.77
2023-03-24T02:38:56.369Z,13.24
2023-03-24T02:41:30.308Z,13.66
2023-03-24T02:44:06.601Z,13.12
2023-03-24T02:46:43.168Z,12.67
2023-03-24T02:49:23.861Z,12.63
2023-03-24T02:51:59.273Z,12.76
2023-03-24T02:54:36.635Z,12.68
2023-03-24T02:57:10.884Z,12.92
2023-03-24T02:59:45.455Z,12.74
2023-03-24T03:02:18.939Z,12.98
2023-03-24T03:04:52.399Z,12.72
2023-03-24T03:07:25.180Z,13.05
2023-03-24T03:10:00.214Z,13.05
2023-03-24T03:12:34.637Z,13.07
2023-03-24T03:15:07.959Z,13.05
2023-03-24T03:17:42.528Z,13.12
2023-03-24T03:20:17.646Z,13.09
2023-03-24T03:22:51.988Z,13.31
2023-03-24T03:25:25.545Z,13.26
2023-03-24T03:27:59.023Z,13.23
2023-03-24T03:30:33.823Z,13.39
2023-03-24T03:33:05.596Z,13.36
2023-03-24T03:35:39.341Z,13.51
2023-03-24T03:38:15.717Z,13.09
2023-03-24T03:40:51.690Z,13.47
2023-03-24T03:43:21.818Z,13.66
2023-03-24T03:45:50.653Z,13.50
2023-03-24T03:48:19.950Z,13.64
2023-03-24T03:50:49.733Z,13.47
2023-03-24T03:53:26.920Z,13.26
2023-03-24T03:55:57.026Z,13.10
2023-03-24T03:58:28.917Z,12.85
2023-03-24T04:00:57.704Z,12.60
2023-03-24T04:03:44.939Z,12.67
2023-03-24T04:06:27.086Z,12.69
2023-03-24T04:09:04.042Z,12.86
2023-03-24T04:11:47.851Z,12.60
2023-03-24T04:14:44.683Z,12.43
2023-03-24T04:17:24.580Z,12.69
2023-03-24T04:20:05.679Z,12.68
2023-03-24T04:22:50.818Z,12.75
2023-03-24T04:25:29.718Z,12.54
2023-03-24T04:28:05.399Z,12.50
2023-03-24T04:30:43.997Z,12.62
2023-03-24T04:33:18.466Z,12.27
2023-03-24T04:35:52.432Z,12.64
2023-03-24T04:38:25.772Z,12.66
2023-03-24T04:40:57.524Z,12.45
2023-03-24T04:43:36.580Z,12.50
2023-03-24T04:46:08.918Z,12.25
2023-03-24T04:48:37.872Z,12.30
2023-03-24T04:51:07.520Z,12.30
2023-03-24T04:53:36.056Z,12.62
2023-03-24T04:56:27.474Z,12.57
2023-03-24T04:58:56.630Z,12.45
2023-03-24T05:01:30.477Z,12.48
2023-03-24T05:03:59.736Z,12.88
2023-03-24T05:06:28.448Z,12.95
2023-03-24T05:08:59.069Z,13.12
2023-03-24T05:11:27.962Z,12.76
2023-03-24T05:13:56.883Z,12.35
2023-03-24T05:16:26.916Z,12.08
2023-03-24T05:18:55.612Z,12.06
2023-03-24T05:21:24.196Z,12.07
2023-03-24T05:23:52.741Z,12.08
2023-03-24T05:26:21.396Z,12.47
2023-03-24T05:28:49.978Z,12.50
2023-03-24T05:31:18.627Z,11.53
2023-03-24T05:33:48.631Z,11.88
2023-03-24T05:36:17.320Z,12.28
2023-03-24T05:38:45.881Z,11.47
2023-03-24T05:41:14.446Z,11.86
2023-03-24T05:43:43.003Z,12.34
2023-03-24T05:46:11.691Z,12.64
2023-03-24T05:48:40.309Z,12.90
2023-03-24T05:51:10.707Z,12.84
2023-03-24T05:53:39.255Z,13.04
2023-03-24T05:56:11.917Z,12.34
2023-03-24T05:58:40.522Z,12.44
2023-03-24T06:01:10.733Z,13.08
2023-03-24T06:03:40.592Z,13.78
2023-03-24T06:06:14.882Z,14.17
2023-03-24T06:08:45.181Z,14.47
2023-03-24T06:11:14.073Z,14.24
2023-03-24T06:13:42.689Z,13.43
2023-03-24T06:16:12.004Z,14.00
2023-03-24T06:18:42.839Z,13.64
2023-03-24T06:21:12.785Z,14.00
2023-03-24T06:23:41.588Z,13.02
2023-03-24T06:26:12.598Z,12.83
2023-03-24T06:28:42.305Z,12.79
2023-03-24T06:31:15.158Z,12.90
2023-03-24T06:33:43.953Z,12.59
2023-03-24T06:36:14.814Z,12.57
2023-03-24T06:38:44.026Z,12.26
2023-03-24T06:41:12.898Z,13.54
2023-03-24T06:43:41.432Z,14.60
2023-03-24T06:46:10.981Z,13.82
2023-03-24T06:48:39.809Z,14.43
2023-03-24T06:51:08.963Z,14.84
2023-03-24T06:53:41.284Z,14.21
2023-03-24T06:56:10.174Z,14.11
2023-03-24T06:58:38.729Z,13.81
2023-03-24T07:01:07.455Z,14.13
2023-03-24T07:03:36.811Z,13.23
2023-03-24T07:06:07.546Z,14.47
2023-03-24T07:08:38.600Z,15.56
2023-03-24T07:11:10.243Z,15.17
2023-03-24T07:13:38.973Z,15.79
2023-03-24T07:16:08.281Z,14.49
2023-03-24T07:18:37.091Z,15.14
2023-03-24T07:21:05.949Z,14.96
2023-03-24T07:23:34.842Z,15.57
2023-03-24T07:26:03.413Z,13.73
2023-03-24T07:28:33.381Z,14.42
2023-03-24T07:31:04.713Z,15.89
2023-03-24T07:33:33.512Z,15.28
2023-03-24T07:36:02.119Z,16.42
2023-03-24T07:38:31.058Z,15.99
2023-03-24T07:41:00.388Z,13.95
2023-03-24T07:43:29.051Z,14.52
2023-03-24T07:45:59.025Z,15.03
2023-03-24T07:48:27.613Z,14.89
2023-03-24T07:50:56.400Z,15.49
2023-03-24T07:53:25.018Z,13.66
2023-03-24T07:55:53.582Z,15.65
2023-03-24T07:58:22.388Z,15.67
2023-03-24T08:00:51.166Z,15.47
2023-03-24T08:03:28.107Z,16.02
2023-03-24T08:05:57.148Z,15.37
2023-03-24T08:08:25.768Z,15.92
2023-03-24T08:10:54.042Z,15.74
2023-03-24T08:13:22.575Z,15.51
2023-03-24T08:15:51.418Z,15.99
2023-03-24T08:18:21.974Z,15.38
2023-03-24T08:20:51.535Z,15.16
2023-03-24T08:23:20.119Z,14.19
2023-03-24T08:25:50.261Z,14.14
2023-03-24T08:28:18.983Z,14.35
2023-03-24T08:30:48.071Z,14.04
2023-03-24T08:33:17.812Z,14.83
2023-03-24T08:35:47.785Z,14.12
2023-03-24T08:38:18.770Z,14.18
2023-03-24T08:40:49.051Z,15.18
2023-03-24T08:43:17.636Z,15.47
2023-03-24T08:45:46.206Z,15.37
2023-03-24T08:48:14.624Z,15.35
2023-03-24T08:50:43.681Z,16.25
2023-03-24T08:53:13.667Z,16.71
2023-03-24T08:55:43.686Z,16.08
2023-03-24T08:58:15.732Z,16.73
2023-03-24T09:00:45.623Z,15.93
2023-03-24T09:03:18.526Z,15.09
2023-03-24T09:05:47.969Z,15.03
2023-03-24T09:08:19.959Z,16.05
2023-03-24T09:10:48.567Z,16.20
2023-03-24T09:13:17.239Z,15.20
2023-03-24T09:15:48.949Z,15.64
2023-03-24T09:18:17.911Z,15.95
2023-03-24T09:20:47.339Z,16.57
2023-03-24T09:23:18.089Z,15.16
2023-03-24T09:25:47.182Z,15.56
2023-03-24T09:28:16.289Z,15.30
2023-03-24T09:30:45.214Z,14.91
2023-03-24T09:33:14.229Z,15.49
2023-03-24T09:35:43.084Z,16.07
2023-03-24T09:38:12.403Z,14.60
2023-03-24T09:40:44.062Z,14.21
2023-03-24T09:43:23.840Z,13.72
2023-03-24T09:45:54.995Z,14.02
2023-03-24T09:48:32.504Z,14.01
2023-03-24T09:51:05.965Z,13.71
2023-03-24T09:53:43.801Z,13.86
2023-03-24T09:56:18.480Z,14.49
2023-03-24T09:58:54.553Z,14.06
2023-03-24T10:01:26.457Z,13.98
2023-03-24T10:03:59.278Z,14.04
2023-03-24T10:06:30.781Z,14.36
2023-03-24T10:09:18.470Z,14.16
2023-03-24T10:11:56.265Z,15.11
2023-03-24T10:14:40.523Z,14.76
2023-03-24T10:17:19.559Z,14.46
2023-03-24T10:19:59.904Z,14.39
2023-03-24T10:22:35.591Z,14.72
2023-03-24T10:25:16.678Z,14.53
2023-03-24T10:27:52.408Z,15.07
2023-03-24T10:30:24.973Z,15.16
2023-03-24T10:32:54.776Z,15.88
2023-03-24T10:35:28.661Z,16.92
2023-03-24T10:38:00.924Z,16.21
2023-03-24T10:40:33.869Z,16.45
2023-03-24T10:43:09.386Z,15.43
2023-03-24T10:45:40.944Z,15.43
2023-03-24T10:48:10.400Z,14.75
2023-03-24T10:50:44.516Z,14.15
2023-03-24T10:53:20.652Z,13.88
2023-03-24T10:55:50.722Z,14.29
2023-03-24T10:58:30.307Z,13.96
2023-03-24T11:01:01.491Z,14.33
2023-03-24T11:03:32.885Z,14.54
2023-03-24T11:06:03.967Z,14.98
2023-03-24T11:08:37.900Z,14.88
2023-03-24T11:11:29.690Z,14.52
2023-03-24T11:14:02.179Z,14.85
2023-03-24T11:16:33.412Z,13.99
2023-03-24T11:19:06.815Z,14.72
2023-03-24T11:21:38.154Z,16.03
2023-03-24T11:24:13.491Z,15.56
2023-03-24T11:26:46.843Z,15.79
2023-03-24T11:29:19.887Z,15.72
2023-03-24T11:31:55.189Z,15.36
2023-03-24T11:34:26.324Z,15.64
2023-03-24T11:36:57.335Z,15.12
2023-03-24T11:39:26.922Z,14.81
2023-03-24T11:42:15.459Z,14.81
2023-03-24T11:44:49.915Z,14.35
2023-03-24T11:47:25.787Z,14.22
2023-03-24T11:50:06.825Z,15.24
2023-03-24T11:52:41.511Z,15.21
2023-03-24T11:55:17.970Z,15.39
2023-03-24T11:57:56.471Z,16.03
2023-03-24T12:00:34.827Z,15.44
2023-03-24T12:03:49.855Z,15.42
2023-03-24T12:06:41.658Z,15.06
2023-03-24T12:09:22.989Z,15.63
2023-03-24T12:12:22.481Z,15.53
2023-03-24T12:15:27.144Z,16.02
2023-03-24T12:18:11.623Z,15.93
2023-03-24T12:20:46.151Z,15.15
2023-03-24T12:23:19.728Z,15.85
2023-03-24T12:26:06.376Z,15.95
2023-03-24T12:29:30.725Z,15.15
2023-03-24T12:32:27.566Z,14.94
2023-03-24T12:35:41.349Z,14.61
2023-03-24T12:38:34.375Z,15.40
2023-03-24T12:41:18.090Z,16.06
2023-03-24T12:44:03.571Z,15.67
2023-03-24T12:46:47.760Z,15.39
2023-03-24T12:49:43.698Z,14.80
2023-03-24T12:52:43.866Z,14.62
2023-03-24T12:55:18.013Z,14.88
2023-03-24T12:57:52.990Z,14.77
2023-03-24T13:00:27.205Z,15.16
2023-03-24T13:02:59.176Z,14.84
2023-03-24T13:05:33.124Z,15.03
2023-03-24T13:08:06.795Z,14.54
2023-03-24T13:10:40.534Z,14.67
2023-03-24T13:13:16.415Z,14.00
2023-03-24T13:15:49.138Z,14.64
2023-03-24T13:18:32.807Z,14.14
2023-03-24T13:21:08.951Z,14.77
2023-03-24T13:23:47.971Z,14.78
2023-03-24T13:26:27.404Z,15.08
2023-03-24T13:29:24.034Z,15.62
2023-03-24T13:31:57.721Z,14.98
2023-03-24T13:34:31.261Z,15.41
2023-03-24T13:37:04.277Z,15.23
2023-03-24T13:39:37.388Z,14.60
2023-03-24T13:42:06.542Z,14.18
2023-03-24T13:44:40.910Z,13.79
2023-03-24T13:47:15.538Z,14.64
2023-03-24T13:50:01.363Z,14.39
2023-03-24T13:52:35.749Z,15.37
2023-03-24T13:55:16.198Z,15.62
2023-03-24T13:57:55.591Z,15.88
2023-03-24T14:00:25.517Z,15.89
2023-03-24T14:02:55.519Z,15.94
2023-03-24T14:05:59.287Z,16.54
2023-03-24T14:08:44.821Z,16.11
2023-03-24T14:12:08.765Z,15.72
2023-03-24T14:14:57.882Z,14.44
2023-03-24T14:17:27.930Z,13.83
2023-03-24T14:20:13.704Z,14.76
2023-03-24T14:22:48.400Z,14.06
2023-03-24T14:25:27.367Z,13.59
2023-03-24T14:28:08.754Z,14.02
2023-03-24T14:30:40.810Z,13.98
2023-03-24T14:33:27.022Z,14.84
2023-03-24T14:36:04.997Z,13.75
2023-03-24T14:38:38.812Z,14.64
2023-03-24T14:41:13.828Z,14.58
2023-03-24T14:44:00.802Z,14.41
2023-03-24T14:46:40.360Z,15.57
2023-03-24T14:49:24.313Z,14.78
2023-03-24T14:52:01.710Z,15.55
2023-03-24T14:54:38.132Z,14.89
2023-03-24T14:57:08.922Z,15.27
2023-03-24T14:59:46.961Z,15.78
2023-03-24T15:02:29.033Z,14.98
2023-03-24T15:05:24.953Z,15.76
2023-03-24T15:08:15.794Z,15.49
2023-03-24T15:10:50.750Z,16.20
2023-03-24T15:13:36.880Z,15.87
2023-03-24T15:16:09.076Z,16.45
2023-03-24T15:18:57.654Z,15.78
2023-03-24T15:21:35.000Z,15.81
2023-03-24T15:24:05.437Z,15.98
2023-03-24T15:26:33.990Z,15.61
2023-03-24T15:29:06.703Z,16.25
2023-03-24T15:31:35.399Z,16.50
2023-03-24T15:34:06.394Z,16.87
2023-03-24T15:36:44.999Z,16.81
2023-03-24T15:39:22.018Z,16.13
2023-03-24T15:41:53.819Z,16.58
2023-03-24T15:44:26.562Z,15.69
2023-03-24T15:46:58.745Z,14.92
2023-03-24T15:49:31.806Z,12.20
2023-03-24T15:52:05.319Z,12.21
2023-03-24T15:54:41.828Z,11.43
2023-03-24T15:57:19.215Z,12.74
2023-03-24T15:59:50.567Z,11.98
2023-03-24T16:02:31.328Z,13.25
2023-03-24T16:07:37.761Z,14.00
2023-03-24T16:10:08.778Z,14.88
2023-03-24T16:12:38.248Z,14.16
2023-03-24T16:15:08.193Z,14.90
2023-03-24T16:17:36.517Z,14.61
2023-03-24T16:20:08.999Z,15.52
2023-03-24T16:22:38.657Z,15.37
2023-03-24T16:25:08.670Z,15.31
2023-03-24T16:27:37.007Z,15.92
2023-03-24T16:30:21.260Z,16.30
2023-03-24T16:32:49.704Z,14.94
2023-03-24T16:35:18.515Z,14.98
2023-03-24T16:37:48.282Z,14.15
2023-03-24T16:40:23.396Z,14.91
2023-03-24T16:42:51.682Z,13.90
2023-03-24T16:45:20.154Z,13.74
2023-03-24T16:47:48.472Z,13.27
2023-03-24T16:50:31.301Z,13.70
2023-03-24T16:53:01.654Z,13.97
2023-03-24T16:55:30.442Z,12.51
2023-03-24T16:57:59.014Z,12.47
2023-03-24T17:00:30.000Z,13.98
2023-03-24T17:03:00.369Z,14.49
2023-03-24T17:05:32.240Z,14.05
2023-03-24T17:08:02.327Z,13.05
2023-03-24T17:10:31.391Z,14.39
2023-03-24T17:12:59.880Z,15.11
2023-03-24T17:15:31.652Z,13.76
2023-03-24T17:18:00.935Z,13.05
2023-03-24T17:20:29.733Z,13.18
2023-03-24T17:22:58.598Z,12.57
2023-03-24T17:25:29.334Z,13.55
2023-03-24T17:27:58.239Z,13.53
2023-03-24T17:30:29.280Z,13.22
2023-03-24T17:32:58.334Z,13.33
2023-03-24T17:35:27.283Z,13.24
2023-03-24T17:37:55.844Z,12.25
2023-03-24T17:40:24.431Z,13.16
2023-03-24T17:42:54.117Z,13.60
2023-03-24T17:45:22.654Z,13.10
2023-03-24T17:47:51.243Z,14.13
2023-03-24T17:50:19.693Z,14.44
2023-03-24T17:52:49.230Z,14.45
2023-03-24T17:55:19.229Z,14.88
2023-03-24T17:57:47.597Z,14.77
2023-03-24T18:00:17.950Z,14.79
2023-03-24T18:02:47.140Z,14.77
2023-03-24T18:05:16.034Z,14.54
2023-03-24T18:07:44.528Z,14.48
2023-03-24T18:10:13.891Z,14.34
2023-03-24T18:12:42.367Z,13.95
2023-03-24T18:15:11.950Z,13.13
2023-03-24T18:17:41.990Z,13.26
2023-03-24T18:20:12.263Z,13.71
2023-03-24T18:22:41.208Z,13.43
2023-03-24T18:25:13.875Z,12.68
2023-03-24T18:27:42.489Z,13.02
2023-03-24T18:30:14.838Z,12.98
2023-03-24T18:32:44.661Z,12.98
2023-03-24T18:35:17.152Z,12.77
2023-03-24T18:37:46.124Z,13.25
2023-03-24T18:40:15.827Z,13.38
2023-03-24T18:42:44.211Z,13.25
2023-03-24T18:45:17.512Z,13.51
2023-03-24T18:47:48.142Z,13.31
2023-03-24T18:50:16.848Z,13.64
2023-03-24T18:52:46.010Z,13.11
2023-03-24T18:55:15.828Z,12.33
2023-03-24T18:57:44.127Z,12.83
2023-03-24T19:00:14.503Z,12.84
2023-03-24T19:02:43.558Z,13.53
2023-03-24T19:05:15.377Z,12.94
2023-03-24T19:07:45.755Z,12.83
2023-03-24T19:10:14.451Z,12.11
2023-03-24T19:12:43.006Z,13.21
2023-03-24T19:15:13.667Z,12.21
2023-03-24T19:17:42.070Z,11.80
2023-03-24T19:20:13.920Z,11.95
2023-03-24T19:22:42.265Z,11.82
2023-03-24T19:25:10.867Z,12.88
2023-03-24T19:27:39.173Z,12.12
2023-03-24T19:30:09.417Z,11.90
2023-03-24T19:32:37.766Z,11.40
2023-03-24T19:35:08.289Z,12.16
2023-03-24T19:37:38.119Z,11.92
2023-03-24T19:40:11.644Z,12.56
2023-03-24T19:42:41.988Z,12.43
2023-03-24T19:45:12.718Z,13.33
2023-03-24T19:47:41.056Z,12.57
2023-03-24T19:50:11.272Z,13.65
2023-03-24T19:52:43.092Z,12.94
2023-03-24T19:55:12.985Z,12.30
2023-03-24T19:57:41.686Z,12.69
2023-03-24T20:00:14.330Z,12.18
2023-03-24T20:02:43.373Z,12.23
2023-03-24T20:05:12.126Z,13.50
2023-03-24T20:07:42.051Z,13.40
2023-03-24T20:10:11.532Z,12.68
2023-03-24T20:12:40.320Z,12.40
2023-03-24T20:15:09.754Z,11.57
2023-03-24T20:17:39.546Z,12.34
2023-03-24T20:20:10.373Z,11.82
2023-03-24T20:22:42.060Z,11.92
2023-03-24T20:25:13.358Z,12.54
2023-03-24T20:27:42.044Z,12.59
2023-03-24T20:30:12.658Z,12.18
2023-03-24T20:32:40.969Z,13.01
2023-03-24T20:35:10.222Z,12.50
2023-03-24T20:37:38.491Z,12.15
2023-03-24T20:40:10.406Z,13.16
2023-03-24T20:42:40.375Z,12.74
2023-03-24T20:45:11.834Z,13.44
2023-03-24T20:47:40.117Z,12.47
2023-03-24T20:50:10.552Z,13.00
2023-03-24T20:52:38.984Z,13.17
2023-03-24T20:55:10.015Z,12.93
2023-03-24T20:57:39.690Z,12.18
2023-03-24T21:00:13.774Z,12.04
2023-03-24T21:02:43.505Z,12.23
2023-03-24T21:05:12.252Z,11.47
2023-03-24T21:07:43.772Z,11.55
2023-03-24T21:10:12.588Z,12.00
2023-03-24T21:12:52.765Z,11.85
2023-03-24T21:15:25.002Z,12.68
2023-03-24T21:17:53.808Z,11.84
2023-03-24T21:20:22.535Z,12.57
2023-03-24T21:22:55.066Z,12.96
2023-03-24T21:25:25.720Z,11.65
2023-03-24T21:27:56.079Z,11.74
2023-03-24T21:30:26.153Z,13.01
2023-03-24T21:32:56.653Z,12.92
2023-03-24T21:35:26.032Z,13.12
2023-03-24T21:37:54.469Z,12.85
2023-03-24T21:40:25.451Z,11.90
2023-03-24T21:42:55.841Z,11.87
2023-03-24T21:45:24.935Z,12.97
2023-03-24T21:47:55.880Z,12.78
2023-03-24T21:50:24.269Z,12.07
2023-03-24T21:52:54.823Z,12.64
2023-03-24T21:55:26.914Z,12.32
2023-03-24T21:57:57.730Z,13.04
2023-03-24T22:00:30.031Z,12.22
2023-03-24T22:02:58.481Z,12.03
2023-03-24T22:05:29.133Z,11.52
2023-03-24T22:07:57.442Z,11.44
2023-03-24T22:10:30.005Z,11.36
2023-03-24T22:12:59.635Z,11.15
2023-03-24T22:15:29.413Z,12.13
2023-03-24T22:17:59.161Z,12.46
2023-03-24T22:20:28.238Z,11.43
2023-03-24T22:22:56.608Z,12.06
2023-03-24T22:25:25.335Z,11.87
2023-03-24T22:27:56.053Z,12.74
2023-03-24T22:30:25.767Z,12.48
2023-03-24T22:32:54.119Z,11.62
2023-03-24T22:35:23.350Z,11.65
2023-03-24T22:37:51.725Z,11.89
2023-03-24T22:40:20.181Z,11.87
2023-03-24T22:42:48.414Z,11.09
2023-03-24T22:45:16.936Z,11.21
2023-03-24T22:47:46.641Z,11.61
2023-03-24T22:50:14.981Z,11.06
2023-03-24T22:52:43.204Z,11.37
2023-03-24T22:55:11.735Z,11.73
2023-03-24T22:57:40.046Z,11.50
2023-03-24T23:00:11.037Z,11.81
2023-03-24T23:02:39.639Z,10.77
2023-03-24T23:05:10.388Z,11.35
2023-03-24T23:07:39.310Z,11.96
2023-03-24T23:10:08.704Z,11.45
2023-03-24T23:12:37.669Z,11.38
2023-03-24T23:15:07.781Z,10.90
2023-03-24T23:17:36.123Z,11.88
2023-03-24T23:20:07.547Z,11.12
2023-03-24T23:22:38.323Z,11.81
2023-03-24T23:25:08.129Z,12.76
2023-03-24T23:27:37.990Z,11.61
2023-03-24T23:30:10.002Z,11.33
2023-03-24T23:32:39.732Z,12.10
2023-03-24T23:35:10.524Z,12.23
2023-03-24T23:37:40.539Z,12.18
2023-03-24T23:40:14.966Z,11.20
2023-03-24T23:42:47.298Z,10.75
2023-03-24T23:45:18.694Z,12.07
2023-03-24T23:47:50.311Z,10.99
2023-03-24T23:50:19.640Z,11.38
2023-03-24T23:52:49.369Z,10.72
2023-03-24T23:55:20.987Z,10.70
2023-03-24T23:57:49.635Z,10.67
